Terminal Aerodrome Forecast
Issued by NWS Twin Cities, MN

Home | Current Version | Previous Version | Text Only | Print | Product List | Glossary On
Versions: 1 2 3 4 5 6 7 8 9 10 11 12
614
FTUS43 KMPX 232320
TAFSTC
TAF
KSTC 232320Z 2400/2424 07011KT P6SM BKN200
     FM240700 10008KT P6SM BKN250
     FM241400 14011G19KT P6SM BKN200
     FM241800 16016G29KT P6SM BKN200
     FM242300 17011G20KT P6SM OVC050=

USA.gov is the U.S. government's official web portal to all federal, state and local government web resources and services.